sensor_id;sensor_type;location;lat;lon;timestamp;P1;durP1;ratioP1;P2;durP2;ratioP2
38901;SDS011;24661;53.566;9.910;2022-11-24T00:00:45;8.63;;;4.73;;
38901;SDS011;24661;53.566;9.910;2022-11-24T00:03:10;7.97;;;4.90;;
38901;SDS011;24661;53.566;9.910;2022-11-24T00:05:36;12.03;;;5.10;;
38901;SDS011;24661;53.566;9.910;2022-11-24T00:08:02;9.77;;;4.50;;
38901;SDS011;24661;53.566;9.910;2022-11-24T00:10:28;9.13;;;4.60;;
38901;SDS011;24661;53.566;9.910;2022-11-24T00:12:54;14.20;;;5.43;;
38901;SDS011;24661;53.566;9.910;2022-11-24T00:15:20;8.77;;;4.67;;
38901;SDS011;24661;53.566;9.910;2022-11-24T00:17:45;9.20;;;4.67;;
38901;SDS011;24661;53.566;9.910;2022-11-24T00:20:11;17.20;;;5.63;;
38901;SDS011;24661;53.566;9.910;2022-11-24T00:22:36;10.03;;;4.83;;
38901;SDS011;24661;53.566;9.910;2022-11-24T00:25:02;8.70;;;4.83;;
38901;SDS011;24661;53.566;9.910;2022-11-24T00:27:28;12.27;;;5.00;;
38901;SDS011;24661;53.566;9.910;2022-11-24T00:29:53;15.03;;;5.27;;
38901;SDS011;24661;53.566;9.910;2022-11-24T00:32:19;9.87;;;4.73;;
38901;SDS011;24661;53.566;9.910;2022-11-24T00:34:45;10.60;;;5.47;;
38901;SDS011;24661;53.566;9.910;2022-11-24T00:37:11;9.13;;;5.03;;
38901;SDS011;24661;53.566;9.910;2022-11-24T00:39:36;6.70;;;4.00;;
38901;SDS011;24661;53.566;9.910;2022-11-24T00:42:02;11.83;;;5.77;;
38901;SDS011;24661;53.566;9.910;2022-11-24T00:44:27;13.63;;;4.40;;
38901;SDS011;24661;53.566;9.910;2022-11-24T00:46:53;9.67;;;4.30;;
38901;SDS011;24661;53.566;9.910;2022-11-24T00:49:18;12.73;;;5.20;;
38901;SDS011;24661;53.566;9.910;2022-11-24T00:51:44;9.67;;;4.23;;
38901;SDS011;24661;53.566;9.910;2022-11-24T00:54:10;10.00;;;4.20;;
38901;SDS011;24661;53.566;9.910;2022-11-24T00:56:36;13.37;;;5.43;;
38901;SDS011;24661;53.566;9.910;2022-11-24T00:59:02;15.47;;;4.50;;
38901;SDS011;24661;53.566;9.910;2022-11-24T01:01:28;8.23;;;4.63;;
38901;SDS011;24661;53.566;9.910;2022-11-24T01:03:57;11.57;;;4.57;;
38901;SDS011;24661;53.566;9.910;2022-11-24T01:06:25;8.47;;;4.40;;
38901;SDS011;24661;53.566;9.910;2022-11-24T01:08:52;17.10;;;5.07;;
38901;SDS011;24661;53.566;9.910;2022-11-24T01:11:19;11.13;;;4.20;;
38901;SDS011;24661;53.566;9.910;2022-11-24T01:13:47;11.80;;;4.80;;
38901;SDS011;24661;53.566;9.910;2022-11-24T01:16:23;13.73;;;5.03;;
38901;SDS011;24661;53.566;9.910;2022-11-24T01:18:58;5.67;;;4.07;;
38901;SDS011;24661;53.566;9.910;2022-11-24T01:21:25;10.50;;;5.30;;
38901;SDS011;24661;53.566;9.910;2022-11-24T01:23:51;10.47;;;4.93;;
38901;SDS011;24661;53.566;9.910;2022-11-24T01:26:18;10.33;;;5.00;;
38901;SDS011;24661;53.566;9.910;2022-11-24T01:28:44;7.83;;;4.37;;
38901;SDS011;24661;53.566;9.910;2022-11-24T01:31:10;10.67;;;5.20;;
38901;SDS011;24661;53.566;9.910;2022-11-24T01:33:36;8.17;;;4.90;;
38901;SDS011;24661;53.566;9.910;2022-11-24T01:36:03;10.53;;;4.43;;
38901;SDS011;24661;53.566;9.910;2022-11-24T01:38:30;12.23;;;4.80;;
38901;SDS011;24661;53.566;9.910;2022-11-24T01:41:03;12.03;;;4.93;;
38901;SDS011;24661;53.566;9.910;2022-11-24T01:43:29;10.37;;;5.03;;
38901;SDS011;24661;53.566;9.910;2022-11-24T01:45:55;11.40;;;4.83;;
38901;SDS011;24661;53.566;9.910;2022-11-24T01:48:26;14.40;;;5.33;;
38901;SDS011;24661;53.566;9.910;2022-11-24T01:51:30;15.70;;;6.43;;
38901;SDS011;24661;53.566;9.910;2022-11-24T01:53:52;15.10;;;5.10;;
38901;SDS011;24661;53.566;9.910;2022-11-24T01:56:23;13.40;;;5.30;;
38901;SDS011;24661;53.566;9.910;2022-11-24T01:58:49;13.83;;;4.97;;
38901;SDS011;24661;53.566;9.910;2022-11-24T02:01:16;8.40;;;5.23;;
38901;SDS011;24661;53.566;9.910;2022-11-24T02:03:42;12.57;;;5.30;;
38901;SDS011;24661;53.566;9.910;2022-11-24T02:08:49;13.53;;;5.40;;
38901;SDS011;24661;53.566;9.910;2022-11-24T02:11:25;18.60;;;5.80;;
38901;SDS011;24661;53.566;9.910;2022-11-24T02:13:53;5.77;;;4.60;;
38901;SDS011;24661;53.566;9.910;2022-11-24T02:16:20;11.80;;;5.27;;
38901;SDS011;24661;53.566;9.910;2022-11-24T02:18:45;8.87;;;4.77;;
38901;SDS011;24661;53.566;9.910;2022-11-24T02:21:12;10.67;;;5.37;;
38901;SDS011;24661;53.566;9.910;2022-11-24T02:23:43;14.50;;;5.03;;
38901;SDS011;24661;53.566;9.910;2022-11-24T02:29:09;11.63;;;5.60;;
38901;SDS011;24661;53.566;9.910;2022-11-24T02:31:37;12.60;;;5.70;;
38901;SDS011;24661;53.566;9.910;2022-11-24T02:34:15;11.37;;;4.70;;
38901;SDS011;24661;53.566;9.910;2022-11-24T02:36:40;18.47;;;5.17;;
38901;SDS011;24661;53.566;9.910;2022-11-24T02:39:12;13.10;;;5.07;;
38901;SDS011;24661;53.566;9.910;2022-11-24T02:41:40;13.57;;;6.07;;
38901;SDS011;24661;53.566;9.910;2022-11-24T02:44:10;12.63;;;5.20;;
38901;SDS011;24661;53.566;9.910;2022-11-24T02:46:38;9.47;;;4.50;;
38901;SDS011;24661;53.566;9.910;2022-11-24T02:49:03;15.97;;;5.03;;
38901;SDS011;24661;53.566;9.910;2022-11-24T02:51:29;11.37;;;5.13;;
38901;SDS011;24661;53.566;9.910;2022-11-24T02:53:54;9.57;;;4.40;;
38901;SDS011;24661;53.566;9.910;2022-11-24T02:56:20;8.77;;;5.20;;
38901;SDS011;24661;53.566;9.910;2022-11-24T02:58:46;10.13;;;4.93;;
38901;SDS011;24661;53.566;9.910;2022-11-24T03:01:11;13.90;;;4.80;;
38901;SDS011;24661;53.566;9.910;2022-11-24T03:03:37;14.43;;;5.00;;
38901;SDS011;24661;53.566;9.910;2022-11-24T03:06:02;12.97;;;5.60;;
38901;SDS011;24661;53.566;9.910;2022-11-24T03:08:28;11.13;;;5.50;;
38901;SDS011;24661;53.566;9.910;2022-11-24T03:10:53;9.77;;;4.73;;
38901;SDS011;24661;53.566;9.910;2022-11-24T03:13:19;7.37;;;4.30;;
38901;SDS011;24661;53.566;9.910;2022-11-24T03:15:44;10.03;;;5.60;;
38901;SDS011;24661;53.566;9.910;2022-11-24T03:18:10;12.63;;;5.30;;
38901;SDS011;24661;53.566;9.910;2022-11-24T03:20:36;10.53;;;4.53;;
38901;SDS011;24661;53.566;9.910;2022-11-24T03:23:01;10.37;;;5.33;;
38901;SDS011;24661;53.566;9.910;2022-11-24T03:25:27;9.53;;;4.77;;
38901;SDS011;24661;53.566;9.910;2022-11-24T03:27:54;14.53;;;5.47;;
38901;SDS011;24661;53.566;9.910;2022-11-24T03:30:21;14.30;;;5.43;;
38901;SDS011;24661;53.566;9.910;2022-11-24T03:32:49;9.03;;;4.80;;
38901;SDS011;24661;53.566;9.910;2022-11-24T03:35:16;13.37;;;5.60;;
38901;SDS011;24661;53.566;9.910;2022-11-24T03:37:41;10.47;;;5.00;;
38901;SDS011;24661;53.566;9.910;2022-11-24T03:40:07;13.13;;;6.37;;
38901;SDS011;24661;53.566;9.910;2022-11-24T03:42:33;9.63;;;4.10;;
38901;SDS011;24661;53.566;9.910;2022-11-24T03:44:59;6.67;;;4.63;;
38901;SDS011;24661;53.566;9.910;2022-11-24T03:47:24;12.23;;;4.93;;
38901;SDS011;24661;53.566;9.910;2022-11-24T03:49:50;7.27;;;4.60;;
38901;SDS011;24661;53.566;9.910;2022-11-24T03:52:15;11.87;;;5.07;;
38901;SDS011;24661;53.566;9.910;2022-11-24T03:54:41;8.70;;;4.07;;
38901;SDS011;24661;53.566;9.910;2022-11-24T03:57:07;12.23;;;5.80;;
38901;SDS011;24661;53.566;9.910;2022-11-24T03:59:32;10.00;;;4.17;;
38901;SDS011;24661;53.566;9.910;2022-11-24T04:01:59;10.53;;;4.30;;
38901;SDS011;24661;53.566;9.910;2022-11-24T04:04:26;8.10;;;4.87;;
38901;SDS011;24661;53.566;9.910;2022-11-24T04:06:51;7.07;;;4.83;;
38901;SDS011;24661;53.566;9.910;2022-11-24T04:09:17;14.73;;;5.90;;
38901;SDS011;24661;53.566;9.910;2022-11-24T04:11:42;10.30;;;4.70;;
38901;SDS011;24661;53.566;9.910;2022-11-24T04:14:26;13.47;;;5.27;;
38901;SDS011;24661;53.566;9.910;2022-11-24T04:16:52;14.67;;;5.00;;
38901;SDS011;24661;53.566;9.910;2022-11-24T04:19:17;9.60;;;4.43;;
38901;SDS011;24661;53.566;9.910;2022-11-24T04:21:43;19.83;;;5.87;;
38901;SDS011;24661;53.566;9.910;2022-11-24T04:24:09;14.67;;;4.70;;
38901;SDS011;24661;53.566;9.910;2022-11-24T04:26:34;20.93;;;6.13;;
38901;SDS011;24661;53.566;9.910;2022-11-24T04:29:00;18.43;;;5.23;;
38901;SDS011;24661;53.566;9.910;2022-11-24T04:31:25;18.57;;;4.80;;
38901;SDS011;24661;53.566;9.910;2022-11-24T04:33:51;7.60;;;4.23;;
38901;SDS011;24661;53.566;9.910;2022-11-24T04:36:16;6.17;;;4.27;;
38901;SDS011;24661;53.566;9.910;2022-11-24T04:38:42;19.00;;;4.97;;
38901;SDS011;24661;53.566;9.910;2022-11-24T04:41:08;13.27;;;4.67;;
38901;SDS011;24661;53.566;9.910;2022-11-24T04:43:34;12.37;;;4.77;;
38901;SDS011;24661;53.566;9.910;2022-11-24T04:45:59;9.47;;;4.93;;
38901;SDS011;24661;53.566;9.910;2022-11-24T04:48:26;12.60;;;6.10;;
38901;SDS011;24661;53.566;9.910;2022-11-24T04:50:52;11.30;;;5.10;;
38901;SDS011;24661;53.566;9.910;2022-11-24T04:53:18;19.30;;;6.43;;
38901;SDS011;24661;53.566;9.910;2022-11-24T04:55:44;20.30;;;6.33;;
38901;SDS011;24661;53.566;9.910;2022-11-24T04:58:09;9.90;;;5.00;;
38901;SDS011;24661;53.566;9.910;2022-11-24T05:00:36;18.67;;;5.77;;
38901;SDS011;24661;53.566;9.910;2022-11-24T05:03:02;13.87;;;5.90;;
38901;SDS011;24661;53.566;9.910;2022-11-24T05:05:28;8.10;;;4.90;;
38901;SDS011;24661;53.566;9.910;2022-11-24T05:07:54;12.47;;;5.47;;
38901;SDS011;24661;53.566;9.910;2022-11-24T05:10:21;16.80;;;5.57;;
38901;SDS011;24661;53.566;9.910;2022-11-24T05:13:06;14.97;;;5.40;;
38901;SDS011;24661;53.566;9.910;2022-11-24T05:15:35;16.23;;;5.97;;
38901;SDS011;24661;53.566;9.910;2022-11-24T05:18:03;32.73;;;8.20;;
38901;SDS011;24661;53.566;9.910;2022-11-24T05:20:30;17.37;;;6.27;;
38901;SDS011;24661;53.566;9.910;2022-11-24T05:22:59;16.43;;;6.67;;
38901;SDS011;24661;53.566;9.910;2022-11-24T05:25:29;8.97;;;5.00;;
38901;SDS011;24661;53.566;9.910;2022-11-24T05:27:57;18.87;;;5.83;;
38901;SDS011;24661;53.566;9.910;2022-11-24T05:30:27;13.63;;;6.17;;
38901;SDS011;24661;53.566;9.910;2022-11-24T05:32:53;11.00;;;5.60;;
38901;SDS011;24661;53.566;9.910;2022-11-24T05:35:20;12.53;;;4.70;;
38901;SDS011;24661;53.566;9.910;2022-11-24T05:37:46;15.40;;;6.03;;
38901;SDS011;24661;53.566;9.910;2022-11-24T05:40:12;18.60;;;6.67;;
38901;SDS011;24661;53.566;9.910;2022-11-24T05:42:37;15.67;;;6.50;;
38901;SDS011;24661;53.566;9.910;2022-11-24T05:45:07;13.33;;;5.73;;
38901;SDS011;24661;53.566;9.910;2022-11-24T05:47:36;12.63;;;5.53;;
38901;SDS011;24661;53.566;9.910;2022-11-24T05:50:02;14.23;;;4.87;;
38901;SDS011;24661;53.566;9.910;2022-11-24T05:52:28;14.10;;;5.57;;
38901;SDS011;24661;53.566;9.910;2022-11-24T05:54:54;18.30;;;6.33;;
38901;SDS011;24661;53.566;9.910;2022-11-24T05:57:19;13.73;;;6.83;;
38901;SDS011;24661;53.566;9.910;2022-11-24T05:59:45;13.60;;;7.70;;
38901;SDS011;24661;53.566;9.910;2022-11-24T06:02:10;18.20;;;6.63;;
38901;SDS011;24661;53.566;9.910;2022-11-24T06:04:36;13.70;;;5.80;;
38901;SDS011;24661;53.566;9.910;2022-11-24T06:07:02;13.60;;;6.27;;
38901;SDS011;24661;53.566;9.910;2022-11-24T06:09:28;17.47;;;7.37;;
38901;SDS011;24661;53.566;9.910;2022-11-24T06:11:54;13.43;;;6.10;;
38901;SDS011;24661;53.566;9.910;2022-11-24T06:14:20;20.87;;;6.30;;
38901;SDS011;24661;53.566;9.910;2022-11-24T06:16:46;14.37;;;6.70;;
38901;SDS011;24661;53.566;9.910;2022-11-24T06:19:11;18.43;;;6.57;;
38901;SDS011;24661;53.566;9.910;2022-11-24T06:21:37;16.07;;;6.20;;
38901;SDS011;24661;53.566;9.910;2022-11-24T06:24:03;13.37;;;6.60;;
38901;SDS011;24661;53.566;9.910;2022-11-24T06:26:29;12.83;;;5.57;;
38901;SDS011;24661;53.566;9.910;2022-11-24T06:28:55;14.13;;;6.47;;
38901;SDS011;24661;53.566;9.910;2022-11-24T06:31:20;16.90;;;6.17;;
38901;SDS011;24661;53.566;9.910;2022-11-24T06:33:47;13.77;;;5.67;;
38901;SDS011;24661;53.566;9.910;2022-11-24T06:36:13;13.77;;;6.23;;
38901;SDS011;24661;53.566;9.910;2022-11-24T06:38:39;16.73;;;6.93;;
38901;SDS011;24661;53.566;9.910;2022-11-24T06:41:14;18.90;;;5.70;;
38901;SDS011;24661;53.566;9.910;2022-11-24T06:43:40;13.80;;;6.30;;
38901;SDS011;24661;53.566;9.910;2022-11-24T06:46:06;14.37;;;6.67;;
38901;SDS011;24661;53.566;9.910;2022-11-24T06:48:32;9.60;;;5.83;;
38901;SDS011;24661;53.566;9.910;2022-11-24T06:50:58;14.80;;;5.87;;
38901;SDS011;24661;53.566;9.910;2022-11-24T06:53:25;20.80;;;7.03;;
38901;SDS011;24661;53.566;9.910;2022-11-24T06:55:51;18.43;;;5.83;;
38901;SDS011;24661;53.566;9.910;2022-11-24T06:58:17;16.40;;;6.57;;
38901;SDS011;24661;53.566;9.910;2022-11-24T07:00:42;16.77;;;5.57;;
38901;SDS011;24661;53.566;9.910;2022-11-24T07:03:11;12.80;;;5.73;;
38901;SDS011;24661;53.566;9.910;2022-11-24T07:05:40;16.60;;;5.87;;
38901;SDS011;24661;53.566;9.910;2022-11-24T07:08:05;20.63;;;6.60;;
38901;SDS011;24661;53.566;9.910;2022-11-24T07:10:31;17.70;;;5.80;;
38901;SDS011;24661;53.566;9.910;2022-11-24T07:12:57;10.73;;;6.60;;
38901;SDS011;24661;53.566;9.910;2022-11-24T07:15:22;20.90;;;7.47;;
38901;SDS011;24661;53.566;9.910;2022-11-24T07:17:49;18.20;;;7.40;;
38901;SDS011;24661;53.566;9.910;2022-11-24T07:20:14;13.60;;;7.23;;
38901;SDS011;24661;53.566;9.910;2022-11-24T07:22:40;17.47;;;7.50;;
38901;SDS011;24661;53.566;9.910;2022-11-24T07:25:06;11.70;;;7.50;;
38901;SDS011;24661;53.566;9.910;2022-11-24T07:27:34;17.87;;;8.20;;
38901;SDS011;24661;53.566;9.910;2022-11-24T07:30:00;13.70;;;7.03;;
38901;SDS011;24661;53.566;9.910;2022-11-24T07:32:26;21.40;;;9.10;;
38901;SDS011;24661;53.566;9.910;2022-11-24T07:34:53;25.40;;;8.73;;
38901;SDS011;24661;53.566;9.910;2022-11-24T07:37:18;16.43;;;8.43;;
38901;SDS011;24661;53.566;9.910;2022-11-24T07:39:44;25.10;;;7.40;;
38901;SDS011;24661;53.566;9.910;2022-11-24T07:42:09;18.60;;;7.60;;
38901;SDS011;24661;53.566;9.910;2022-11-24T07:44:35;22.97;;;8.53;;
38901;SDS011;24661;53.566;9.910;2022-11-24T07:47:01;16.93;;;7.50;;
38901;SDS011;24661;53.566;9.910;2022-11-24T07:49:27;27.63;;;8.50;;
38901;SDS011;24661;53.566;9.910;2022-11-24T07:51:52;23.00;;;8.33;;
38901;SDS011;24661;53.566;9.910;2022-11-24T07:54:18;17.97;;;8.47;;
38901;SDS011;24661;53.566;9.910;2022-11-24T07:56:43;24.67;;;8.87;;
38901;SDS011;24661;53.566;9.910;2022-11-24T07:59:11;16.97;;;8.10;;
38901;SDS011;24661;53.566;9.910;2022-11-24T08:01:37;15.57;;;7.57;;
38901;SDS011;24661;53.566;9.910;2022-11-24T08:04:03;15.10;;;7.20;;
38901;SDS011;24661;53.566;9.910;2022-11-24T08:06:28;16.77;;;7.13;;
38901;SDS011;24661;53.566;9.910;2022-11-24T08:08:54;15.87;;;6.87;;
38901;SDS011;24661;53.566;9.910;2022-11-24T08:11:21;20.07;;;7.43;;
38901;SDS011;24661;53.566;9.910;2022-11-24T08:13:46;15.77;;;8.27;;
38901;SDS011;24661;53.566;9.910;2022-11-24T08:16:14;21.93;;;8.17;;
38901;SDS011;24661;53.566;9.910;2022-11-24T08:18:41;16.73;;;7.50;;
38901;SDS011;24661;53.566;9.910;2022-11-24T08:21:11;16.83;;;7.60;;
38901;SDS011;24661;53.566;9.910;2022-11-24T08:23:38;18.07;;;7.10;;
38901;SDS011;24661;53.566;9.910;2022-11-24T08:26:05;27.53;;;8.47;;
38901;SDS011;24661;53.566;9.910;2022-11-24T08:28:33;13.53;;;7.57;;
38901;SDS011;24661;53.566;9.910;2022-11-24T08:31:03;17.20;;;7.03;;
38901;SDS011;24661;53.566;9.910;2022-11-24T08:33:31;19.57;;;7.83;;
38901;SDS011;24661;53.566;9.910;2022-11-24T08:36:11;16.33;;;7.10;;
38901;SDS011;24661;53.566;9.910;2022-11-24T08:38:41;17.67;;;7.63;;
38901;SDS011;24661;53.566;9.910;2022-11-24T08:41:08;11.90;;;6.93;;
38901;SDS011;24661;53.566;9.910;2022-11-24T08:43:35;23.57;;;7.37;;
38901;SDS011;24661;53.566;9.910;2022-11-24T08:46:03;15.07;;;7.40;;
38901;SDS011;24661;53.566;9.910;2022-11-24T08:48:30;17.17;;;7.50;;
38901;SDS011;24661;53.566;9.910;2022-11-24T08:50:56;22.07;;;7.50;;
38901;SDS011;24661;53.566;9.910;2022-11-24T08:53:22;23.67;;;8.23;;
38901;SDS011;24661;53.566;9.910;2022-11-24T08:55:49;22.57;;;7.83;;
38901;SDS011;24661;53.566;9.910;2022-11-24T08:58:15;31.73;;;8.43;;
38901;SDS011;24661;53.566;9.910;2022-11-24T09:00:41;20.00;;;8.50;;
38901;SDS011;24661;53.566;9.910;2022-11-24T09:03:08;27.10;;;7.33;;
38901;SDS011;24661;53.566;9.910;2022-11-24T09:05:35;17.83;;;6.93;;
38901;SDS011;24661;53.566;9.910;2022-11-24T09:08:01;32.03;;;8.67;;
38901;SDS011;24661;53.566;9.910;2022-11-24T09:10:27;17.30;;;7.17;;
38901;SDS011;24661;53.566;9.910;2022-11-24T09:12:53;20.33;;;7.47;;
38901;SDS011;24661;53.566;9.910;2022-11-24T09:15:18;27.90;;;8.37;;
38901;SDS011;24661;53.566;9.910;2022-11-24T09:17:44;18.87;;;6.77;;
38901;SDS011;24661;53.566;9.910;2022-11-24T09:20:10;19.17;;;7.00;;
38901;SDS011;24661;53.566;9.910;2022-11-24T09:22:36;17.83;;;7.40;;
38901;SDS011;24661;53.566;9.910;2022-11-24T09:25:02;15.67;;;6.00;;
38901;SDS011;24661;53.566;9.910;2022-11-24T09:27:29;15.03;;;6.43;;
38901;SDS011;24661;53.566;9.910;2022-11-24T09:29:55;23.73;;;7.43;;
38901;SDS011;24661;53.566;9.910;2022-11-24T09:32:21;18.77;;;7.70;;
38901;SDS011;24661;53.566;9.910;2022-11-24T09:34:48;14.17;;;6.37;;
38901;SDS011;24661;53.566;9.910;2022-11-24T09:37:15;18.50;;;6.13;;
38901;SDS011;24661;53.566;9.910;2022-11-24T09:39:41;24.27;;;7.20;;
38901;SDS011;24661;53.566;9.910;2022-11-24T09:42:11;21.03;;;6.63;;
38901;SDS011;24661;53.566;9.910;2022-11-24T09:50:12;20.83;;;6.93;;
38901;SDS011;24661;53.566;9.910;2022-11-24T09:52:51;23.10;;;8.10;;
38901;SDS011;24661;53.566;9.910;2022-11-24T09:55:41;16.60;;;6.33;;
38901;SDS011;24661;53.566;9.910;2022-11-24T10:00:57;16.10;;;5.17;;
38901;SDS011;24661;53.566;9.910;2022-11-24T10:06:04;19.37;;;5.60;;
38901;SDS011;24661;53.566;9.910;2022-11-24T10:17:38;22.83;;;4.27;;
38901;SDS011;24661;53.566;9.910;2022-11-24T10:26:17;13.47;;;4.20;;
38901;SDS011;24661;53.566;9.910;2022-11-24T10:28:53;10.63;;;3.97;;
38901;SDS011;24661;53.566;9.910;2022-11-24T10:33:48;17.73;;;4.83;;
38901;SDS011;24661;53.566;9.910;2022-11-24T10:36:48;23.30;;;6.57;;
38901;SDS011;24661;53.566;9.910;2022-11-24T10:39:35;21.30;;;4.97;;
38901;SDS011;24661;53.566;9.910;2022-11-24T10:42:27;12.37;;;4.60;;
38901;SDS011;24661;53.566;9.910;2022-11-24T10:45:11;17.50;;;4.40;;
38901;SDS011;24661;53.566;9.910;2022-11-24T10:47:41;23.57;;;3.90;;
38901;SDS011;24661;53.566;9.910;2022-11-24T10:50:19;16.83;;;4.50;;
38901;SDS011;24661;53.566;9.910;2022-11-24T10:58:27;19.00;;;5.93;;
38901;SDS011;24661;53.566;9.910;2022-11-24T11:00:55;14.17;;;4.23;;
38901;SDS011;24661;53.566;9.910;2022-11-24T11:03:24;17.23;;;4.87;;
38901;SDS011;24661;53.566;9.910;2022-11-24T11:05:53;23.53;;;5.33;;
38901;SDS011;24661;53.566;9.910;2022-11-24T11:08:30;18.40;;;5.17;;
38901;SDS011;24661;53.566;9.910;2022-11-24T11:13:56;19.17;;;4.90;;
38901;SDS011;24661;53.566;9.910;2022-11-24T11:16:31;16.30;;;4.90;;
38901;SDS011;24661;53.566;9.910;2022-11-24T11:19:02;14.63;;;3.40;;
38901;SDS011;24661;53.566;9.910;2022-11-24T11:21:31;19.87;;;5.03;;
38901;SDS011;24661;53.566;9.910;2022-11-24T11:24:03;18.40;;;4.90;;
38901;SDS011;24661;53.566;9.910;2022-11-24T11:26:37;16.63;;;4.33;;
38901;SDS011;24661;53.566;9.910;2022-11-24T11:31:32;16.17;;;4.77;;
38901;SDS011;24661;53.566;9.910;2022-11-24T11:36:26;14.27;;;4.43;;
38901;SDS011;24661;53.566;9.910;2022-11-24T11:38:53;20.77;;;4.53;;
38901;SDS011;24661;53.566;9.910;2022-11-24T11:41:20;19.17;;;5.57;;
38901;SDS011;24661;53.566;9.910;2022-11-24T11:43:55;17.53;;;5.17;;
38901;SDS011;24661;53.566;9.910;2022-11-24T11:46:28;12.90;;;4.37;;
38901;SDS011;24661;53.566;9.910;2022-11-24T11:48:56;18.43;;;5.43;;
38901;SDS011;24661;53.566;9.910;2022-11-24T11:51:28;28.47;;;5.60;;
38901;SDS011;24661;53.566;9.910;2022-11-24T12:05:14;21.63;;;5.30;;
38901;SDS011;24661;53.566;9.910;2022-11-24T12:08:12;18.80;;;5.33;;
38901;SDS011;24661;53.566;9.910;2022-11-24T12:21:28;12.10;;;3.97;;
38901;SDS011;24661;53.566;9.910;2022-11-24T12:26:40;14.00;;;3.87;;
38901;SDS011;24661;53.566;9.910;2022-11-24T12:29:49;17.40;;;5.57;;
38901;SDS011;24661;53.566;9.910;2022-11-24T12:37:48;16.63;;;4.60;;
38901;SDS011;24661;53.566;9.910;2022-11-24T12:41:36;19.37;;;5.07;;
38901;SDS011;24661;53.566;9.910;2022-11-24T12:43:29;19.17;;;5.07;;
38901;SDS011;24661;53.566;9.910;2022-11-24T12:46:07;14.57;;;4.97;;
38901;SDS011;24661;53.566;9.910;2022-11-24T12:51:16;16.53;;;5.60;;
38901;SDS011;24661;53.566;9.910;2022-11-24T12:53:45;12.83;;;4.83;;
38901;SDS011;24661;53.566;9.910;2022-11-24T12:56:13;13.83;;;4.63;;
38901;SDS011;24661;53.566;9.910;2022-11-24T13:01:32;20.50;;;5.90;;
38901;SDS011;24661;53.566;9.910;2022-11-24T13:07:21;16.30;;;5.10;;
38901;SDS011;24661;53.566;9.910;2022-11-24T13:12:54;18.17;;;4.43;;
38901;SDS011;24661;53.566;9.910;2022-11-24T13:15:28;16.60;;;5.83;;
38901;SDS011;24661;53.566;9.910;2022-11-24T13:17:56;12.27;;;4.53;;
38901;SDS011;24661;53.566;9.910;2022-11-24T13:20:29;13.63;;;4.90;;
38901;SDS011;24661;53.566;9.910;2022-11-24T13:22:58;17.90;;;5.20;;
38901;SDS011;24661;53.566;9.910;2022-11-24T13:25:30;16.43;;;5.23;;
38901;SDS011;24661;53.566;9.910;2022-11-24T13:28:00;16.37;;;4.57;;
38901;SDS011;24661;53.566;9.910;2022-11-24T13:35:40;17.60;;;6.13;;
38901;SDS011;24661;53.566;9.910;2022-11-24T13:38:50;18.87;;;5.43;;
38901;SDS011;24661;53.566;9.910;2022-11-24T13:44:15;16.80;;;4.90;;
38901;SDS011;24661;53.566;9.910;2022-11-24T13:47:00;13.27;;;5.90;;
38901;SDS011;24661;53.566;9.910;2022-11-24T13:57:41;16.87;;;5.23;;
38901;SDS011;24661;53.566;9.910;2022-11-24T14:00:23;13.93;;;3.93;;
38901;SDS011;24661;53.566;9.910;2022-11-24T14:03:34;18.90;;;4.77;;
38901;SDS011;24661;53.566;9.910;2022-11-24T14:05:48;12.90;;;3.87;;
38901;SDS011;24661;53.566;9.910;2022-11-24T14:08:18;14.27;;;4.30;;
38901;SDS011;24661;53.566;9.910;2022-11-24T14:10:51;12.37;;;3.73;;
38901;SDS011;24661;53.566;9.910;2022-11-24T14:16:00;14.37;;;5.13;;
38901;SDS011;24661;53.566;9.910;2022-11-24T14:18:40;11.87;;;4.20;;
38901;SDS011;24661;53.566;9.910;2022-11-24T14:21:24;15.43;;;4.23;;
38901;SDS011;24661;53.566;9.910;2022-11-24T14:24:17;15.07;;;3.73;;
38901;SDS011;24661;53.566;9.910;2022-11-24T14:26:49;12.93;;;4.40;;
38901;SDS011;24661;53.566;9.910;2022-11-24T14:29:16;13.70;;;3.83;;
38901;SDS011;24661;53.566;9.910;2022-11-24T14:31:51;25.10;;;4.57;;
38901;SDS011;24661;53.566;9.910;2022-11-24T14:34:21;13.43;;;4.70;;
38901;SDS011;24661;53.566;9.910;2022-11-24T14:36:48;16.87;;;4.60;;
38901;SDS011;24661;53.566;9.910;2022-11-24T14:39:16;19.37;;;4.80;;
38901;SDS011;24661;53.566;9.910;2022-11-24T14:46:44;17.80;;;5.73;;
38901;SDS011;24661;53.566;9.910;2022-11-24T14:49:15;15.40;;;3.80;;
38901;SDS011;24661;53.566;9.910;2022-11-24T14:51:42;15.80;;;4.10;;
38901;SDS011;24661;53.566;9.910;2022-11-24T14:54:14;14.00;;;4.03;;
38901;SDS011;24661;53.566;9.910;2022-11-24T14:56:54;16.87;;;4.27;;
38901;SDS011;24661;53.566;9.910;2022-11-24T14:59:23;12.70;;;4.53;;
38901;SDS011;24661;53.566;9.910;2022-11-24T15:01:50;16.47;;;4.07;;
38901;SDS011;24661;53.566;9.910;2022-11-24T15:09:51;10.47;;;3.87;;
38901;SDS011;24661;53.566;9.910;2022-11-24T15:12:38;14.67;;;4.43;;
38901;SDS011;24661;53.566;9.910;2022-11-24T15:17:48;9.30;;;3.53;;
38901;SDS011;24661;53.566;9.910;2022-11-24T15:20:31;14.33;;;4.20;;
38901;SDS011;24661;53.566;9.910;2022-11-24T15:23:28;15.83;;;4.67;;
38901;SDS011;24661;53.566;9.910;2022-11-24T15:28:27;21.10;;;5.43;;
38901;SDS011;24661;53.566;9.910;2022-11-24T15:30:54;10.60;;;3.80;;
38901;SDS011;24661;53.566;9.910;2022-11-24T15:33:23;20.47;;;5.40;;
38901;SDS011;24661;53.566;9.910;2022-11-24T15:35:49;13.00;;;4.00;;
38901;SDS011;24661;53.566;9.910;2022-11-24T15:38:15;18.60;;;5.27;;
38901;SDS011;24661;53.566;9.910;2022-11-24T15:40:42;12.90;;;4.43;;
38901;SDS011;24661;53.566;9.910;2022-11-24T15:43:20;11.80;;;5.03;;
38901;SDS011;24661;53.566;9.910;2022-11-24T15:45:59;15.27;;;3.90;;
38901;SDS011;24661;53.566;9.910;2022-11-24T15:48:26;9.03;;;3.53;;
38901;SDS011;24661;53.566;9.910;2022-11-24T15:50:52;17.37;;;3.87;;
38901;SDS011;24661;53.566;9.910;2022-11-24T15:53:20;16.57;;;3.73;;
38901;SDS011;24661;53.566;9.910;2022-11-24T15:55:51;14.13;;;4.80;;
38901;SDS011;24661;53.566;9.910;2022-11-24T15:58:17;14.00;;;7.30;;
38901;SDS011;24661;53.566;9.910;2022-11-24T16:00:43;20.73;;;5.43;;
38901;SDS011;24661;53.566;9.910;2022-11-24T16:03:09;18.10;;;4.83;;
38901;SDS011;24661;53.566;9.910;2022-11-24T16:05:36;16.30;;;4.17;;
38901;SDS011;24661;53.566;9.910;2022-11-24T16:08:03;19.30;;;4.97;;
38901;SDS011;24661;53.566;9.910;2022-11-24T16:10:34;12.27;;;5.23;;
38901;SDS011;24661;53.566;9.910;2022-11-24T16:13:00;16.83;;;5.13;;
38901;SDS011;24661;53.566;9.910;2022-11-24T16:15:26;11.87;;;4.67;;
38901;SDS011;24661;53.566;9.910;2022-11-24T16:17:52;15.63;;;4.63;;
38901;SDS011;24661;53.566;9.910;2022-11-24T16:20:17;15.30;;;4.83;;
38901;SDS011;24661;53.566;9.910;2022-11-24T16:22:44;17.00;;;5.17;;
38901;SDS011;24661;53.566;9.910;2022-11-24T16:25:10;21.17;;;5.23;;
38901;SDS011;24661;53.566;9.910;2022-11-24T16:27:36;15.70;;;5.23;;
38901;SDS011;24661;53.566;9.910;2022-11-24T16:30:02;15.57;;;5.27;;
38901;SDS011;24661;53.566;9.910;2022-11-24T16:32:29;12.87;;;4.97;;
38901;SDS011;24661;53.566;9.910;2022-11-24T16:34:54;19.43;;;4.90;;
38901;SDS011;24661;53.566;9.910;2022-11-24T16:37:20;27.37;;;6.40;;
38901;SDS011;24661;53.566;9.910;2022-11-24T16:39:46;16.47;;;5.50;;
38901;SDS011;24661;53.566;9.910;2022-11-24T16:42:12;16.00;;;5.87;;
38901;SDS011;24661;53.566;9.910;2022-11-24T16:44:38;18.43;;;5.77;;
38901;SDS011;24661;53.566;9.910;2022-11-24T16:47:04;13.67;;;5.00;;
38901;SDS011;24661;53.566;9.910;2022-11-24T16:49:30;19.17;;;6.07;;